Time;durP1;ratioP1;P1;durP2;ratioP2;P2;SDS_P1;SDS_P2;PMS_P1;PMS_P2;Temp;Humidity;BMP_temperature;BMP_pressure;BME280_temperature;BME280_humidity;BME280_pressure;Samples;Min_cycle;Max_cycle;Signal;HPM_P1;HPM_P2
2023/03/23 00:03:01;;;;;;;0.45;0.40;;;;;;;;;;10156135;29;20107;-84
2023/03/23 00:08:04;;;;;;;0.97;0.40;;;;;;;;;;10155533;29;20052;-86
2023/03/23 00:13:06;;;;;;;0.40;0.40;;;;;;;;;;10155504;29;20050;-85
2023/03/23 00:18:20;;;;;;;0.50;0.43;;;;;;;;;;10151276;29;20048;-85
2023/03/23 00:23:25;;;;;;;1.23;0.60;;;;;;;;;;10145029;29;20059;-85
2023/03/23 00:28:29;;;;;;;0.95;0.50;;;;;;;;;;10165705;29;20095;-85
2023/03/23 00:33:37;;;;;;;0.80;0.63;;;;;;;;;;10139577;29;20074;-86
2023/03/23 00:38:41;;;;;;;1.02;0.50;;;;;;;;;;10139757;29;20072;-86
2023/03/23 00:43:44;;;;;;;0.80;0.60;;;;;;;;;;10137417;29;20045;-86
2023/03/23 00:48:50;;;;;;;3.05;0.80;;;;;;;;;;10162972;29;20048;-85
2023/03/23 00:53:52;;;;;;;2.25;0.80;;;;;;;;;;10137874;29;20064;-85
2023/03/23 00:58:55;;;;;;;1.25;0.90;;;;;;;;;;10167433;29;20041;-85
2023/03/23 01:04:00;;;;;;;2.08;1.00;;;;;;;;;;10122078;29;20043;-85
2023/03/23 01:09:04;;;;;;;2.28;1.02;;;;;;;;;;10159717;29;20048;-85
2023/03/23 01:14:06;;;;;;;1.08;0.80;;;;;;;;;;10131085;29;20045;-85
2023/03/23 01:19:10;;;;;;;2.63;1.20;;;;;;;;;;10142155;29;20101;-86
2023/03/23 01:24:13;;;;;;;1.35;0.77;;;;;;;;;;10181055;29;20107;-85
2023/03/23 01:29:15;;;;;;;0.50;0.40;;;;;;;;;;10186022;29;20046;-85
2023/03/23 01:34:19;;;;;;;1.48;0.85;;;;;;;;;;10200575;29;20503;-85
2023/03/23 01:39:22;;;;;;;0.93;0.60;;;;;;;;;;10200302;29;20050;-85
2023/03/23 01:45:02;;;;;;;2.00;0.70;;;;;;;;;;10184695;29;20555;-85
2023/03/23 01:50:07;;;;;;;1.15;0.60;;;;;;;;;;10167716;29;20067;-85
2023/03/23 01:55:11;;;;;;;2.57;0.60;;;;;;;;;;10176061;29;20040;-85
2023/03/23 02:00:19;;;;;;;1.30;0.73;;;;;;;;;;10190020;29;20052;-85
2023/03/23 02:05:33;;;;;;;0.60;0.47;;;;;;;;;;10186130;29;20043;-84
2023/03/23 02:10:41;;;;;;;0.65;0.30;;;;;;;;;;10138658;29;20044;-85
2023/03/23 02:15:49;;;;;;;1.05;0.40;;;;;;;;;;10132988;29;20123;-84
2023/03/23 02:21:28;;;;;;;0.60;0.43;;;;;;;;;;10176920;29;20052;-84
2023/03/23 02:26:41;;;;;;;1.55;0.63;;;;;;;;;;10143326;29;20055;-84
2023/03/23 02:32:05;;;;;;;1.58;0.60;;;;;;;;;;10145283;29;20068;-85
2023/03/23 02:37:14;;;;;;;0.43;0.40;;;;;;;;;;10150332;29;20393;-84
2023/03/23 02:42:24;;;;;;;0.93;0.47;;;;;;;;;;10136217;29;20052;-85
2023/03/23 02:47:28;;;;;;;1.23;0.52;;;;;;;;;;10149309;29;20053;-83
2023/03/23 02:52:34;;;;;;;0.55;0.38;;;;;;;;;;10136039;29;20136;-85
2023/03/23 02:57:37;;;;;;;1.30;0.88;;;;;;;;;;10120530;29;20040;-85
2023/03/23 03:02:43;;;;;;;1.05;0.50;;;;;;;;;;10120606;29;20051;-85
2023/03/23 03:07:58;;;;;;;1.25;0.75;;;;;;;;;;10120419;29;20088;-85
2023/03/23 03:13:07;;;;;;;0.95;0.60;;;;;;;;;;10119922;29;20136;-85
2023/03/23 03:18:16;;;;;;;0.40;0.40;;;;;;;;;;10119949;29;20052;-84
2023/03/23 03:23:23;;;;;;;0.60;0.40;;;;;;;;;;10135199;29;20059;-85
2023/03/23 03:28:29;;;;;;;0.90;0.30;;;;;;;;;;10119295;29;20130;-86
2023/03/23 03:33:33;;;;;;;0.70;0.65;;;;;;;;;;10118853;29;20044;-86
2023/03/23 03:38:45;;;;;;;0.60;0.50;;;;;;;;;;10118655;29;20060;-86
2023/03/23 03:43:48;;;;;;;1.77;0.75;;;;;;;;;;10119280;29;20644;-85
2023/03/23 03:48:51;;;;;;;1.25;0.60;;;;;;;;;;10118508;29;20437;-85
2023/03/23 03:53:58;;;;;;;3.60;0.80;;;;;;;;;;10118038;29;20079;-85
2023/03/23 03:59:01;;;;;;;1.83;1.00;;;;;;;;;;10118273;29;20048;-85
2023/03/23 04:04:24;;;;;;;2.67;0.90;;;;;;;;;;10120686;29;20099;-86
2023/03/23 04:09:31;;;;;;;0.77;0.60;;;;;;;;;;10118105;29;20048;-86
2023/03/23 04:14:35;;;;;;;1.23;1.00;;;;;;;;;;10133417;29;20516;-85
2023/03/23 04:19:38;;;;;;;1.75;0.80;;;;;;;;;;10117218;29;20064;-85
2023/03/23 04:24:43;;;;;;;1.00;0.90;;;;;;;;;;10132588;29;20085;-85
2023/03/23 04:29:51;;;;;;;0.85;0.70;;;;;;;;;;10116888;29;20132;-85
2023/03/23 04:35:13;;;;;;;0.77;0.70;;;;;;;;;;10119259;29;20195;-85
2023/03/23 04:40:29;;;;;;;1.08;0.65;;;;;;;;;;10116819;29;20044;-85
2023/03/23 04:45:45;;;;;;;0.60;0.50;;;;;;;;;;10116814;29;20063;-86
2023/03/23 04:50:50;;;;;;;1.40;0.80;;;;;;;;;;10117671;29;20555;-85
2023/03/23 04:56:01;;;;;;;0.88;0.70;;;;;;;;;;10116741;29;20045;-85
2023/03/23 05:01:09;;;;;;;1.00;0.70;;;;;;;;;;10117228;29;20057;-85
2023/03/23 05:06:21;;;;;;;0.73;0.60;;;;;;;;;;10117424;29;20051;-85
2023/03/23 05:11:28;;;;;;;0.83;0.70;;;;;;;;;;10117441;29;20075;-85
2023/03/23 05:16:31;;;;;;;1.38;0.70;;;;;;;;;;10116552;29;20131;-85
2023/03/23 05:21:35;;;;;;;1.08;0.85;;;;;;;;;;10116945;29;20080;-87
2023/03/23 05:26:39;;;;;;;0.60;0.50;;;;;;;;;;10117738;29;20053;-86
2023/03/23 05:31:52;;;;;;;0.93;0.80;;;;;;;;;;10118183;29;20051;-86
2023/03/23 05:36:57;;;;;;;1.27;0.50;;;;;;;;;;10118513;29;20041;-86
2023/03/23 05:42:24;;;;;;;1.17;0.60;;;;;;;;;;10120136;29;20044;-85
2023/03/23 05:48:00;;;;;;;1.08;0.80;;;;;;;;;;10119735;29;20131;-86
2023/03/23 05:53:05;;;;;;;1.33;0.80;;;;;;;;;;10093193;29;20405;-85
2023/03/23 05:58:13;;;;;;;1.92;0.60;;;;;;;;;;10123497;29;20059;-84
2023/03/23 06:03:19;;;;;;;0.73;0.55;;;;;;;;;;10115726;29;20045;-85
2023/03/23 06:08:43;;;;;;;0.90;0.70;;;;;;;;;;10177165;29;20131;-87
2023/03/23 06:27:59;;;;;;;1.00;0.80;;;;;;;;;;10026054;29;20054;-86
2023/03/23 06:33:05;;;;;;;1.58;0.80;;;;;;;;;;9998864;29;20091;-86
2023/03/23 06:38:29;;;;;;;1.92;0.80;;;;;;;;;;10207090;29;20055;-86
2023/03/23 06:43:35;;;;;;;1.48;0.63;;;;;;;;;;10200408;29;20047;-86
2023/03/23 06:48:49;;;;;;;2.10;0.50;;;;;;;;;;10199589;29;20044;-86
2023/03/23 06:53:56;;;;;;;2.47;0.85;;;;;;;;;;10213992;29;20076;-87
2023/03/23 06:59:03;;;;;;;1.27;0.63;;;;;;;;;;10189735;29;20076;-86
2023/03/23 07:04:06;;;;;;;2.13;0.60;;;;;;;;;;10173879;29;20381;-86
2023/03/23 07:09:21;;;;;;;3.08;0.40;;;;;;;;;;10169969;29;20092;-86
2023/03/23 07:14:26;;;;;;;1.52;0.70;;;;;;;;;;10173070;29;20042;-86
2023/03/23 07:26:59;;;;;;;2.95;0.60;;;;;;;;;;10094666;29;20151;-86
2023/03/23 07:45:09;;;;;;;1.05;0.50;;;;;;;;;;10138991;23;20045;-85
2023/03/23 07:50:13;;;;;;;2.00;0.40;;;;;;;;;;10075599;29;20425;-86
2023/03/23 07:55:18;;;;;;;1.38;0.68;;;;;;;;;;10061625;29;20048;-85
2023/03/23 08:00:32;;;;;;;1.75;0.80;;;;;;;;;;10076631;29;20457;-85
2023/03/23 08:05:38;;;;;;;1.70;0.70;;;;;;;;;;10075267;29;20049;-85
2023/03/23 08:11:07;;;;;;;1.10;0.57;;;;;;;;;;10071725;29;20049;-86
2023/03/23 08:16:30;;;;;;;2.03;0.63;;;;;;;;;;10045114;29;20502;-85
2023/03/23 08:22:00;;;;;;;0.98;0.60;;;;;;;;;;10046848;29;20424;-86
2023/03/23 08:27:23;;;;;;;1.30;0.60;;;;;;;;;;10038606;29;20058;-85
2023/03/23 08:32:56;;;;;;;1.25;0.57;;;;;;;;;;10050713;29;20124;-86
2023/03/23 08:38:17;;;;;;;1.38;0.90;;;;;;;;;;10052889;29;20129;-85
2023/03/23 08:43:40;;;;;;;1.02;0.60;;;;;;;;;;10054874;29;20060;-84
2023/03/23 08:49:03;;;;;;;1.55;0.50;;;;;;;;;;10084711;29;20052;-85
2023/03/23 08:54:25;;;;;;;2.22;0.43;;;;;;;;;;10101312;29;20056;-86
2023/03/23 08:59:27;;;;;;;0.50;0.50;;;;;;;;;;10088964;29;20049;-85
2023/03/23 09:04:54;;;;;;;3.90;0.60;;;;;;;;;;10093325;29;20045;-85
2023/03/23 09:10:17;;;;;;;0.88;0.70;;;;;;;;;;10099649;29;20132;-86
2023/03/23 09:15:20;;;;;;;1.45;0.70;;;;;;;;;;10073430;29;20041;-85
2023/03/23 09:20:27;;;;;;;1.33;0.60;;;;;;;;;;10094416;29;20505;-86
2023/03/23 09:25:31;;;;;;;0.93;0.60;;;;;;;;;;10096770;29;20045;-85
2023/03/23 09:30:36;;;;;;;1.08;0.60;;;;;;;;;;10104443;29;20068;-85
2023/03/23 09:35:41;;;;;;;1.08;0.73;;;;;;;;;;10110695;29;20068;-85
2023/03/23 09:40:48;;;;;;;0.80;0.60;;;;;;;;;;10025945;29;20403;-85
2023/03/23 09:46:01;;;;;;;0.82;0.50;;;;;;;;;;10083500;29;20419;-85
2023/03/23 09:51:13;;;;;;;0.95;0.30;;;;;;;;;;10114977;29;20055;-85
2023/03/23 09:56:17;;;;;;;0.90;0.40;;;;;;;;;;10133416;29;20044;-85
2023/03/23 10:01:26;;;;;;;1.40;0.60;;;;;;;;;;10086973;29;20045;-85
2023/03/23 10:06:30;;;;;;;2.35;0.70;;;;;;;;;;10077190;29;20114;-85
2023/03/23 10:11:41;;;;;;;0.50;0.40;;;;;;;;;;10072550;29;20063;-85
2023/03/23 10:16:53;;;;;;;0.55;0.50;;;;;;;;;;10100083;29;20045;-85
2023/03/23 10:22:06;;;;;;;0.77;0.50;;;;;;;;;;10077838;29;20045;-85
2023/03/23 10:27:21;;;;;;;2.90;0.70;;;;;;;;;;10104379;29;20136;-85
2023/03/23 10:32:43;;;;;;;1.08;0.60;;;;;;;;;;10075239;29;20063;-85
2023/03/23 10:37:51;;;;;;;1.05;0.52;;;;;;;;;;10100683;29;20321;-85
2023/03/23 10:42:54;;;;;;;0.52;0.32;;;;;;;;;;10092423;29;20055;-85
2023/03/23 10:48:02;;;;;;;2.03;0.32;;;;;;;;;;10078351;29;20094;-85
2023/03/23 10:53:16;;;;;;;1.77;0.50;;;;;;;;;;10090885;29;20532;-86
2023/03/23 10:58:28;;;;;;;0.60;0.40;;;;;;;;;;10104404;29;20045;-85
2023/03/23 11:03:40;;;;;;;0.50;0.38;;;;;;;;;;10087731;29;20518;-85
2023/03/23 11:08:54;;;;;;;1.98;0.68;;;;;;;;;;10069926;29;20045;-85
2023/03/23 11:14:01;;;;;;;1.77;0.50;;;;;;;;;;10098383;29;20140;-86
2023/03/23 11:19:14;;;;;;;0.63;0.40;;;;;;;;;;10106256;29;20449;-85
2023/03/23 11:24:18;;;;;;;0.77;0.60;;;;;;;;;;10085859;29;20076;-85
2023/03/23 11:29:25;;;;;;;1.33;0.68;;;;;;;;;;10085564;29;20584;-87
2023/03/23 11:34:36;;;;;;;1.05;0.60;;;;;;;;;;10102241;29;20056;-85
2023/03/23 11:39:50;;;;;;;1.02;0.50;;;;;;;;;;10085161;29;20037;-85
2023/03/23 11:44:52;;;;;;;3.15;0.77;;;;;;;;;;10106730;29;20049;-85
2023/03/23 11:50:03;;;;;;;0.68;0.52;;;;;;;;;;10074587;29;20110;-85
2023/03/23 11:55:12;;;;;;;1.75;0.30;;;;;;;;;;10091547;29;20059;-85
2023/03/23 12:00:19;;;;;;;1.42;0.40;;;;;;;;;;10117238;29;20048;-84
2023/03/23 12:05:46;;;;;;;0.60;0.57;;;;;;;;;;10093799;29;20105;-84
2023/03/23 12:10:59;;;;;;;0.68;0.40;;;;;;;;;;10076152;29;20045;-84
2023/03/23 12:16:10;;;;;;;0.75;0.30;;;;;;;;;;10088341;29;20069;-85
2023/03/23 12:21:20;;;;;;;1.35;0.52;;;;;;;;;;10111722;29;20140;-84
2023/03/23 12:26:27;;;;;;;0.45;0.30;;;;;;;;;;10088572;29;20566;-85
2023/03/23 12:31:37;;;;;;;0.57;0.40;;;;;;;;;;10075039;29;20086;-84
2023/03/23 12:36:53;;;;;;;0.40;0.20;;;;;;;;;;10080341;29;20047;-84
2023/03/23 12:42:01;;;;;;;;;;;;;;;;;;10069804;29;20048;-84
2023/03/23 12:47:24;;;;;;;1.33;0.60;;;;;;;;;;10084116;29;19958;-85
2023/03/23 12:52:30;;;;;;;0.60;0.25;;;;;;;;;;10068323;29;20045;-85
2023/03/23 12:57:36;;;;;;;;;;;;;;;;;;10083293;29;20512;-85
2023/03/23 13:02:45;;;;;;;1.93;0.47;;;;;;;;;;10103176;29;20014;-85
2023/03/23 13:07:53;;;;;;;0.47;0.30;;;;;;;;;;10079984;29;20049;-85
2023/03/23 13:12:58;;;;;;;0.63;0.32;;;;;;;;;;10075420;29;20076;-85
2023/03/23 13:18:12;;;;;;;0.40;0.30;;;;;;;;;;10071180;29;20057;-85
2023/03/23 13:23:17;;;;;;;0.50;0.30;;;;;;;;;;10113659;29;20126;-85
2023/03/23 13:28:26;;;;;;;0.63;0.40;;;;;;;;;;10086304;29;20068;-85
2023/03/23 13:33:35;;;;;;;2.05;0.47;;;;;;;;;;10097085;29;20049;-85
2023/03/23 13:38:39;;;;;;;0.40;0.30;;;;;;;;;;10098213;29;20053;-85
2023/03/23 13:43:44;;;;;;;0.38;0.38;;;;;;;;;;10105538;29;20063;-85
2023/03/23 13:48:50;;;;;;;0.30;0.30;;;;;;;;;;10080138;29;20040;-85
2023/03/23 13:53:53;;;;;;;0.52;0.40;;;;;;;;;;10078789;29;20801;-85
2023/03/23 13:59:08;;;;;;;0.75;0.40;;;;;;;;;;10102468;29;20073;-85
2023/03/23 14:04:16;;;;;;;4.70;0.57;;;;;;;;;;10106544;29;20513;-85
2023/03/23 14:09:23;;;;;;;1.15;0.50;;;;;;;;;;10088411;29;20053;-85
2023/03/23 14:14:31;;;;;;;0.70;0.50;;;;;;;;;;10099189;29;20053;-86
2023/03/23 14:19:43;;;;;;;1.40;0.60;;;;;;;;;;10090604;29;20049;-86
2023/03/23 14:24:47;;;;;;;1.17;0.63;;;;;;;;;;10065227;29;20064;-86
2023/03/23 14:30:01;;;;;;;1.30;0.85;;;;;;;;;;10095381;29;20471;-86
2023/03/23 14:35:09;;;;;;;0.43;0.40;;;;;;;;;;10096394;29;20048;-85
2023/03/23 14:40:21;;;;;;;0.88;0.52;;;;;;;;;;10096595;29;20041;-86
2023/03/23 14:45:33;;;;;;;1.25;0.75;;;;;;;;;;10095093;29;20052;-85
2023/03/23 14:50:41;;;;;;;1.40;0.63;;;;;;;;;;10073747;29;20041;-85
2023/03/23 14:55:48;;;;;;;2.42;0.65;;;;;;;;;;10077478;29;20709;-86
2023/03/23 15:00:59;;;;;;;2.40;0.82;;;;;;;;;;10072388;29;20045;-86
2023/03/23 15:06:06;;;;;;;8.70;0.77;;;;;;;;;;10084702;29;20045;-85
2023/03/23 15:11:12;;;;;;;2.25;0.93;;;;;;;;;;10042565;29;20045;-85
2023/03/23 15:16:24;;;;;;;2.17;0.73;;;;;;;;;;10078467;29;20285;-85
2023/03/23 15:21:29;;;;;;;2.38;1.35;;;;;;;;;;10098081;29;20424;-88
2023/03/23 15:26:34;;;;;;;0.88;0.63;;;;;;;;;;10099603;29;20057;-88
2023/03/23 15:31:42;;;;;;;2.70;1.05;;;;;;;;;;10096240;29;20455;-88
2023/03/23 15:36:45;;;;;;;1.92;0.80;;;;;;;;;;10060523;29;20117;-88
2023/03/23 15:41:49;;;;;;;1.95;0.55;;;;;;;;;;10081752;29;20466;-88
2023/03/23 15:47:03;;;;;;;3.08;0.90;;;;;;;;;;10074286;29;20068;-88
2023/03/23 15:52:08;;;;;;;2.05;0.95;;;;;;;;;;10077298;29;20053;-88
2023/03/23 15:57:11;;;;;;;1.23;0.67;;;;;;;;;;10079940;29;20053;-88
2023/03/23 16:02:21;;;;;;;2.22;0.90;;;;;;;;;;10099892;29;20426;-87
2023/03/23 16:07:25;;;;;;;2.83;0.65;;;;;;;;;;10095980;29;20442;-88
2023/03/23 16:12:29;;;;;;;0.70;0.50;;;;;;;;;;10113442;29;20457;-88
2023/03/23 16:17:34;;;;;;;0.88;0.55;;;;;;;;;;10096887;29;20045;-88
2023/03/23 16:22:37;;;;;;;1.30;0.63;;;;;;;;;;10081614;29;20056;-87
2023/03/23 16:27:42;;;;;;;2.05;1.05;;;;;;;;;;10082643;29;20045;-87
2023/03/23 16:32:47;;;;;;;1.45;0.73;;;;;;;;;;10093246;29;20069;-89
2023/03/23 16:37:52;;;;;;;1.75;0.88;;;;;;;;;;10094224;29;20399;-88
2023/03/23 16:42:56;;;;;;;2.20;0.50;;;;;;;;;;10110179;29;20045;-88
2023/03/23 16:48:01;;;;;;;1.48;0.70;;;;;;;;;;10088219;29;20532;-88
2023/03/23 16:53:06;;;;;;;1.65;0.30;;;;;;;;;;10094139;29;20637;-88
2023/03/23 16:58:10;;;;;;;0.30;0.30;;;;;;;;;;10073800;29;20077;-88
2023/03/23 17:03:20;;;;;;;1.02;0.40;;;;;;;;;;10097144;29;20048;-88
2023/03/23 17:08:24;;;;;;;0.82;0.63;;;;;;;;;;10099879;29;20734;-88
2023/03/23 17:13:29;;;;;;;0.32;0.30;;;;;;;;;;10101072;29;20131;-88
2023/03/23 17:18:34;;;;;;;0.40;0.40;;;;;;;;;;10075981;29;20049;-88
2023/03/23 17:23:38;;;;;;;0.20;0.20;;;;;;;;;;10099907;29;20112;-88
2023/03/23 17:28:42;;;;;;;1.98;0.70;;;;;;;;;;10091401;29;20086;-88
2023/03/23 17:33:47;;;;;;;0.32;0.30;;;;;;;;;;10083918;29;20510;-88
2023/03/23 17:38:51;;;;;;;0.90;0.75;;;;;;;;;;10100351;29;20084;-88
2023/03/23 17:43:55;;;;;;;2.80;0.70;;;;;;;;;;10085157;29;20048;-88
2023/03/23 17:49:01;;;;;;;0.82;0.63;;;;;;;;;;10090319;29;20132;-88
2023/03/23 17:54:05;;;;;;;1.73;0.60;;;;;;;;;;10081764;29;20049;-88
2023/03/23 17:59:09;;;;;;;0.50;0.40;;;;;;;;;;10088349;29;20045;-87
2023/03/23 18:04:14;;;;;;;1.42;0.50;;;;;;;;;;10088935;29;20061;-88
2023/03/23 18:09:18;;;;;;;1.70;0.68;;;;;;;;;;10107928;29;20056;-88
2023/03/23 18:14:24;;;;;;;1.77;0.70;;;;;;;;;;10092483;29;20090;-88
2023/03/23 18:19:29;;;;;;;0.93;0.50;;;;;;;;;;10097633;29;20044;-87
2023/03/23 18:24:33;;;;;;;1.07;0.60;;;;;;;;;;10097747;29;20080;-87
2023/03/23 18:29:36;;;;;;;1.00;0.55;;;;;;;;;;10093533;29;20037;-87
2023/03/23 18:34:42;;;;;;;0.52;0.50;;;;;;;;;;10086549;29;20068;-87
2023/03/23 18:39:46;;;;;;;1.27;0.50;;;;;;;;;;10100055;29;20053;-87
2023/03/23 18:44:49;;;;;;;1.08;0.40;;;;;;;;;;10103884;29;20310;-88
2023/03/23 18:49:54;;;;;;;0.70;0.43;;;;;;;;;;10106964;29;20056;-88
2023/03/23 18:54:58;;;;;;;1.90;0.80;;;;;;;;;;10112095;29;20144;-88
2023/03/23 19:00:03;;;;;;;2.40;0.73;;;;;;;;;;10119808;23;20049;-86
2023/03/23 19:05:09;;;;;;;0.85;0.65;;;;;;;;;;10134701;29;20054;-87
2023/03/23 19:10:13;;;;;;;;;;;;;;;;;;10124063;29;20067;-87
2023/03/23 19:15:17;;;;;;;1.73;0.77;;;;;;;;;;10107305;29;20409;-86
2023/03/23 19:20:24;;;;;;;1.75;1.02;;;;;;;;;;10122207;29;20084;-86
2023/03/23 19:25:57;;;;;;;1.90;1.05;;;;;;;;;;10124387;29;20097;-86
2023/03/23 19:31:00;;;;;;;1.92;1.13;;;;;;;;;;10112002;29;20076;-87
2023/03/23 19:36:06;;;;;;;2.90;1.30;;;;;;;;;;10124149;29;20131;-86
2023/03/23 19:41:14;;;;;;;2.22;1.13;;;;;;;;;;10114493;29;20072;-87
2023/03/23 19:46:18;;;;;;;1.05;0.70;;;;;;;;;;10097595;29;20051;-86
2023/03/23 19:51:23;;;;;;;2.28;1.05;;;;;;;;;;10100375;29;20089;-86
2023/03/23 19:56:29;;;;;;;1.25;0.65;;;;;;;;;;10116033;29;20060;-86
2023/03/23 20:01:32;;;;;;;1.47;1.03;;;;;;;;;;10103605;29;20044;-85
2023/03/23 20:06:38;;;;;;;0.63;0.47;;;;;;;;;;10123705;29;20571;-86
2023/03/23 20:11:41;;;;;;;1.33;0.98;;;;;;;;;;10128674;29;20132;-86
2023/03/23 20:16:45;;;;;;;1.13;0.60;;;;;;;;;;10114143;29;20132;-86
2023/03/23 20:21:50;;;;;;;1.30;0.77;;;;;;;;;;10123632;29;20055;-87
2023/03/23 20:26:54;;;;;;;1.17;0.70;;;;;;;;;;10118614;29;20411;-86
2023/03/23 20:31:58;;;;;;;1.02;0.70;;;;;;;;;;10122412;29;20112;-86
2023/03/23 20:37:03;;;;;;;1.02;0.70;;;;;;;;;;10112595;29;20206;-85
2023/03/23 20:42:07;;;;;;;1.10;0.63;;;;;;;;;;10097279;29;20061;-86
2023/03/23 20:47:11;;;;;;;1.00;0.65;;;;;;;;;;10084026;29;20144;-86
2023/03/23 20:52:15;;;;;;;0.98;0.60;;;;;;;;;;10098940;29;20048;-86
2023/03/23 20:57:19;;;;;;;1.35;1.00;;;;;;;;;;10099537;29;20047;-86
2023/03/23 21:02:24;;;;;;;1.00;0.90;;;;;;;;;;10109684;29;20056;-86
2023/03/23 21:07:29;;;;;;;1.10;0.63;;;;;;;;;;10105797;29;20049;-87
2023/03/23 21:12:33;;;;;;;1.00;0.80;;;;;;;;;;10093815;29;20150;-86
2023/03/23 21:17:36;;;;;;;1.63;0.93;;;;;;;;;;10098010;29;20051;-87
2023/03/23 21:22:41;;;;;;;0.88;0.80;;;;;;;;;;10109551;29;20083;-87
2023/03/23 21:27:44;;;;;;;2.00;1.17;;;;;;;;;;10122253;29;20085;-87
2023/03/23 21:32:50;;;;;;;1.58;1.02;;;;;;;;;;10118168;29;20045;-86
2023/03/23 21:37:56;;;;;;;0.60;0.60;;;;;;;;;;10121068;29;20068;-87
2023/03/23 21:43:00;;;;;;;1.08;0.90;;;;;;;;;;10126419;29;20048;-89
2023/03/23 21:48:04;;;;;;;1.20;1.00;;;;;;;;;;10122622;29;20105;-86
2023/03/23 21:53:11;;;;;;;1.10;1.00;;;;;;;;;;10128317;29;20048;-88
2023/03/23 21:58:15;;;;;;;2.10;1.58;;;;;;;;;;10123983;29;20072;-87
2023/03/23 22:03:21;;;;;;;1.88;1.40;;;;;;;;;;10118554;29;20048;-88
2023/03/23 22:08:27;;;;;;;1.33;1.00;;;;;;;;;;10123438;29;20078;-87
2023/03/23 22:13:33;;;;;;;1.35;1.13;;;;;;;;;;10124734;29;20393;-87
2023/03/23 22:18:37;;;;;;;1.67;1.38;;;;;;;;;;10124008;29;20068;-86
2023/03/23 22:23:45;;;;;;;3.75;1.83;;;;;;;;;;10115140;29;20040;-86
2023/03/23 22:28:49;;;;;;;2.00;1.30;;;;;;;;;;10114946;29;20497;-86
2023/03/23 22:33:54;;;;;;;2.53;0.98;;;;;;;;;;10121640;29;20303;-86
2023/03/23 22:39:00;;;;;;;2.90;1.50;;;;;;;;;;10150249;29;20412;-86
2023/03/23 22:44:03;;;;;;;1.20;1.10;;;;;;;;;;10127909;29;20139;-87
2023/03/23 22:49:07;;;;;;;0.93;0.75;;;;;;;;;;10117099;29;20428;-87
2023/03/23 22:54:12;;;;;;;1.38;0.80;;;;;;;;;;10117809;29;20123;-88
2023/03/23 22:59:15;;;;;;;1.10;0.70;;;;;;;;;;10123112;29;20585;-87
2023/03/23 23:04:19;;;;;;;1.98;0.85;;;;;;;;;;10113990;29;20428;-86
2023/03/23 23:09:23;;;;;;;1.60;0.90;;;;;;;;;;10130645;29;20072;-87
2023/03/23 23:14:27;;;;;;;0.93;0.73;;;;;;;;;;10125257;29;20079;-86
2023/03/23 23:19:31;;;;;;;0.73;0.70;;;;;;;;;;10130631;29;20055;-86
2023/03/23 23:24:36;;;;;;;0.80;0.80;;;;;;;;;;10109876;29;20057;-86
2023/03/23 23:29:39;;;;;;;1.00;0.60;;;;;;;;;;10119211;29;20052;-86
2023/03/23 23:34:43;;;;;;;0.80;0.70;;;;;;;;;;10128736;29;20043;-86
2023/03/23 23:39:48;;;;;;;2.33;0.88;;;;;;;;;;10117237;29;20044;-86
2023/03/23 23:44:51;;;;;;;1.40;0.55;;;;;;;;;;10143944;29;20096;-86
2023/03/23 23:49:55;;;;;;;0.88;0.57;;;;;;;;;;10127750;29;20543;-86
2023/03/23 23:55:00;;;;;;;0.90;0.77;;;;;;;;;;10125336;29;20575;-87
